Форум клана ЧПУшников

Информация о пользователе

Привет, Гость! Войдите или зарегистрируйтесь.


Вы здесь » Форум клана ЧПУшников » Лазерные станки


Лазерные станки

Тем 211 страница 280 из 397

Тема Ответов Просмотров Последнее сообщение
2 96 18-07-2016 10:25:53  byshaeva
81 2307 17-07-2016 11:06:33  Сергей Кравчик
213 покупаем лазер  sergeywopros
15 2342 13-07-2016 23:39:56  skydmit
118 5234 11-07-2016 12:21:21  f.laser
2 218 09-07-2016 14:27:04  Killa312
11 491 07-07-2016 15:18:42  Hotory
25 637 27-06-2016 21:44:32  Salon-max
38 1966 27-06-2016 05:30:23  Юрецкий
14 394 26-06-2016 11:49:07  Quark
48 1112 24-06-2016 20:06:01  Иван1985
9 542 24-06-2016 19:54:50  Иван1985
16 606 24-06-2016 15:25:23  Sergey AA
2 94 24-06-2016 12:14:53  messer1988
8 426 22-06-2016 15:04:25  Sergey AA
8 523 16-06-2016 22:36:09  megagad
4 282 12-06-2016 18:36:42  *SvEtLaNKa*
207 16728 12-06-2016 11:02:33  Andrey55
4 200 06-06-2016 09:19:33  Zmeei
24 732 02-06-2016 16:29:32  Sofka
16 342 02-06-2016 09:43:13  ilcomp
3 120 31-05-2016 11:04:49  SmileCat
14 421 29-05-2016 10:38:37  Neudrums
19 785 28-05-2016 00:03:48  Sborka
124 10623 26-05-2016 03:33:17  Luaz007
19 214 25-05-2016 12:15:46  Mikky
8 374 24-05-2016 15:31:24  sonr
21 1366 23-05-2016 23:42:46  Avel
238 Волнистый рез  angrydemon
4 189 23-05-2016 17:44:30  YuSTas
11 654 06-05-2016 12:21:49  Юрецкий
2 108 05-05-2016 11:02:05  Kuz
7 390 04-05-2016 01:16:19  snowman
10 285 28-04-2016 20:21:01  Kirian
1 118 28-04-2016 19:58:34  Kirian
37 893 28-04-2016 14:14:04  neotex
3 469 27-04-2016 20:39:04  andrey_e
6 252 27-04-2016 16:16:09  denisej
247 Reci s2  Neudrums
35 854 26-04-2016 21:17:31  Элинка
5 408 25-04-2016 16:52:18  MPN
15 1058 23-04-2016 22:53:06  Sokrat
9 391 23-04-2016 17:45:11  Tab
35 862 23-04-2016 13:05:00  Valera5609
20 637 21-04-2016 12:48:47  Silmaril
18 920 21-04-2016 12:07:58  f.laser
1 139 17-04-2016 23:10:04  megagad
255 Резка с углекислотой  Виктор Краски
23 648 17-04-2016 08:59:55  Flint2015
13 1713 15-04-2016 11:34:20  ImageLaser
11 247 11-04-2016 14:35:21  MaxMaster
13 330 09-04-2016 20:30:46  aldushin
5 249 06-04-2016 17:28:09  daguss
996 87370 29-03-2016 17:50:18  sva-don
14 335 26-03-2016 10:17:16  Егорий
262 Закрыта Резко упала мощность  Neudrums
10 289 24-03-2016 00:59:57  Neudrums
5 362 22-03-2016 20:12:39  Дилик
19 1315 16-03-2016 23:19:45  Falcor
265 Прошу помощи.  Назар
5 247 16-03-2016 09:51:09  Назар
8 214 14-03-2016 16:51:53  Расулыч
21 5334 13-03-2016 19:24:18  barabaschka09
7 265 10-03-2016 20:36:59  chirik
5 628 07-03-2016 20:32:32  Flint2015
19 1580 04-03-2016 17:27:39  Airside
4 166 29-02-2016 22:43:44  nikson
5 136 27-02-2016 08:50:26  Flint2015
273 Тестирование размера реза  Виктор Краски
9 449 26-02-2016 16:55:55  daguss
274 кривая резка  Восходник
17 426 26-02-2016 00:06:30  semerochka
80 4938 22-02-2016 20:51:36  Kinetic
32 843 22-02-2016 20:11:19  Kinetic
17 763 22-02-2016 12:02:26  Kinetic
30 795 19-02-2016 21:54:44  Rudiarius
5 458 14-02-2016 15:24:59  gabber
7 290 14-02-2016 12:43:54  Zippo

Вы здесь » Форум клана ЧПУшников » Лазерные станки